Altair, TX (77412)

5:20 AM CDT on August 26, 2016 (GMT -0500)
Winslow Hills, Alleyton | | Change Station

Elev 256 ft 29.71 °N, 96.39 °W | Updated 2 seconds ago

Scattered Clouds
Scattered Clouds
74.5 °F
Feels Like 72 °F
N
0.0
Wind Variable Wind from SSW
Gusts 0.0 mph

Today
High -- | Low -- °F
--% Chance of Precip.
Yesterday
High -- | Low -- °F
Precip. -- in
Pressure 30.00 in
Visibility 7.0 miles
Clouds Scattered Clouds 2000 ft
Heat Index 72 °F
Dew Point 74 °F
Humidity 97%
Rainfall 0.00 in
Snow Depth Not available.
7:00 AM 7:54 PM
Waning Crescent, 36% visible
METAR K3T5 261015Z AUTO 00000KT 7SM SCT020 24/24 A3000 RMK AO2 T02400236
Pressure 30.00 in
Visibility 7.0 miles
Clouds Scattered Clouds 2000 ft
Heat Index 72 °F
Dew Point 74 °F
Humidity 97%
Rainfall 0.00 in
Snow Depth Not available.
7:00 AM 7:54 PM
Waning Crescent, 36% visible
METAR K3T5 261015Z AUTO 00000KT 7SM SCT020 24/24 A3000 RMK AO2 T02400236

10-Day Weather Forecast

Almanac

Astronomy

Aug. 26, 2016 Rise Set
Actual Time
Civil Twilight
Nautical Twilight
Astronomical Twilight
Moon
Length of Visible Light
Length of Day
Tomorrow will be .
, % of the Moon is Illuminated

Today's Extremes

State Highs State Lows

Community

WunderPhotos

Upload Photos

1,935,069 photos uploaded!

WunderBlog® & News

Nearby

Air Quality

  Air Quality AQ Index Pollutant
Not available.

Snow Depth

Station Depth Elevation

Earthquake Activity

City Distance Mag. Time & Date
Minimum magnitude displayed is 2.5.

Coastal Water Temperatures

Place Temperature

Stations

Nearby Weather Stations

Station Location Temp. Windchill Dew Point Humidity Wind Precip. Elev Updated Type
                   

Watches & Warnings

There are currently no watches in effect.